Space — ZCTI8 — position and weather

sailwx.info

Track history (hours):
 
Tides and Currents Weather Stations Pressure Air Temp Water Temp Dewpoint Dewpoint Depression Visibility Wind Speed Wind Dir Waves Ship Positions

Space

Last reported at 2014-Sep-13 05:24 UTC. Time now 2014-Sep-16 17:32 UTC.
Position N 43°29' E 008°42'.

Length 45 m; draft 2.7 m.

Type: Pleasure craft. MMSI: 319917000.

Date/timePositionNaut miles runAvg speedWind from/ knotsBaromVisibWave heightAir tempDewpointWater temp
2014-Sep-13 05:24N 43°29' E 008°42'40210.6
2014-Sep-11 15:33N 37°07' E 011°20'1111.1
2014-Sep-11 14:32N 36°55' E 011°20'49 2.7
2014-Sep-10 20:21N 37°36' E 010°46'911.4
2014-Sep-10 19:33N 37°43' E 010°38'37611.1
2014-Sep-09 09:33N 43°27' E 007°18'1212.0
2014-Sep-09 08:33N 43°38' E 007°11'1 1.1
2014-Sep-09 07:30N 43°39' E 007°11'0 0.0
2014-Sep-09 06:30N 43°39' E 007°11'5 5.0
2014-Sep-09 05:33N 43°35' E 007°08'0 0.0
2014-Sep-09 04:33N 43°35' E 007°08'0 0.0
2014-Sep-09 03:33N 43°35' E 007°08'0 0.0
2014-Sep-09 02:33N 43°35' E 007°08'0 0.0
2014-Sep-09 01:33N 43°35' E 007°08'0 0.0
2014-Sep-09 00:33N 43°35' E 007°08'0 0.0
2014-Sep-08 23:33N 43°35' E 007°08'0 0.0
2014-Sep-08 22:33N 43°35' E 007°08'0 0.0
2014-Sep-08 21:33N 43°35' E 007°08'0 0.0
2014-Sep-08 20:33N 43°35' E 007°08'0 0.0
2014-Sep-08 19:27N 43°35' E 007°08'4 4.0
2014-Sep-08 18:33N 43°31' E 007°07'1212.4
2014-Sep-08 17:33N 43°24' E 006°53'1212.1
2014-Sep-08 16:33N 43°17' E 006°40'1 0.5
2014-Sep-08 15:32N 43°16' E 006°40'0 0.0
2014-Sep-08 14:32N 43°16' E 006°40'0 0.0
2014-Sep-08 13:29N 43°16' E 006°40'0 0.0
2014-Sep-08 12:32N 43°16' E 006°40'0 0.0
2014-Sep-08 10:29N 43°16' E 006°40'0 0.0
2014-Sep-08 09:32N 43°16' E 006°40'0 0.0
2014-Sep-08 08:32N 43°16' E 006°40'0 0.0
2014-Sep-08 07:32N 43°16' E 006°40'0 0.0
2014-Sep-08 06:29N 43°16' E 006°40'0 0.0
2014-Sep-08 05:32N 43°16' E 006°40'0 0.0
2014-Sep-08 04:32N 43°16' E 006°40'0 0.0
2014-Sep-08 03:32N 43°16' E 006°40'0 0.0
2014-Sep-08 01:20N 43°16' E 006°40'0 0.0
2014-Sep-08 00:32N 43°16' E 006°40'0 0.0
2014-Sep-07 23:29N 43°16' E 006°40'0 0.0
2014-Sep-07 22:23N 43°16' E 006°40'0 0.0
2014-Sep-07 20:29N 43°16' E 006°40'0 0.0
2014-Sep-07 19:29N 43°16' E 006°40'0 0.0
2014-Sep-07 18:32N 43°16' E 006°40'0 0.0
2014-Sep-07 17:32N 43°16' E 006°40'0 0.0
2014-Sep-07 16:26N 43°16' E 006°40'0 0.0
2014-Sep-07 15:32N 43°16' E 006°40'0 0.0
2014-Sep-07 14:32N 43°16' E 006°40'0 0.0
2014-Sep-07 13:32N 43°16' E 006°40'0 0.0
2014-Sep-07 12:14N 43°16' E 006°40'0 0.0
2014-Sep-07 11:23N 43°16' E 006°40'0 0.0
2014-Sep-07 10:26N 43°16' E 006°40'0 0.0
2014-Sep-07 09:32N 43°16' E 006°40'0 0.0
2014-Sep-07 08:32N 43°16' E 006°40'0 0.0
2014-Sep-07 07:32N 43°16' E 006°40'0 0.0
2014-Sep-07 06:32N 43°16' E 006°40'0 0.0
2014-Sep-07 05:32N 43°16' E 006°40'0 0.0
2014-Sep-07 04:29N 43°16' E 006°40'0 0.0
2014-Sep-07 03:32N 43°16' E 006°40'0 0.0
2014-Sep-07 02:29N 43°16' E 006°40'0 0.0
2014-Sep-07 01:32N 43°16' E 006°40'0 0.0
2014-Sep-07 00:32N 43°16' E 006°40'0 0.0
2014-Sep-06 23:32N 43°16' E 006°40'0 0.0
2014-Sep-06 22:32N 43°16' E 006°40'0 0.0
2014-Sep-06 21:32N 43°16' E 006°40'0 0.0
2014-Sep-06 20:32N 43°16' E 006°40'0 0.0
2014-Sep-06 19:32N 43°16' E 006°40'0 0.0
2014-Sep-06 18:32N 43°16' E 006°40'0 0.0
2014-Sep-06 17:32N 43°16' E 006°40'0 0.0
2014-Sep-06 16:32N 43°16' E 006°40'0 0.0
2014-Sep-06 15:32N 43°16' E 006°40'0 0.0
2014-Sep-06 14:29N 43°16' E 006°40'0 0.0
2014-Sep-06 13:32N 43°16' E 006°40'0 0.0
2014-Sep-06 12:20N 43°16' E 006°40'0 0.1
2014-Sep-06 11:32N 43°16' E 006°40'0 0.0
2014-Sep-06 10:23N 43°16' E 006°40'0 0.0
2014-Sep-06 09:32N 43°16' E 006°40'0 0.0
2014-Sep-06 08:32N 43°16' E 006°40'0 0.1
2014-Sep-06 07:32N 43°16' E 006°40'0 0.0
2014-Sep-06 06:32N 43°16' E 006°40'0 0.0
2014-Sep-06 05:29N 43°16' E 006°40'14 1.7
2014-Sep-05 21:05N 43°24' E 006°56'712.9
2014-Sep-05 20:33N 43°28' E 007°04'1111.1
2014-Sep-05 19:33N 43°38' E 007°10'1 0.9
2014-Sep-05 18:28N 43°39' E 007°11'3 3.7
2014-Sep-05 17:33N 43°36' E 007°09'2 1.8
2014-Sep-05 16:32N 43°34' E 007°08'0 0.0
2014-Sep-05 15:32N 43°34' E 007°08'0 0.0
2014-Sep-05 14:32N 43°34' E 007°08'0 0.0
2014-Sep-05 13:32N 43°34' E 007°08'0 0.0
2014-Sep-05 12:32N 43°34' E 007°08'0 0.0
2014-Sep-05 11:32N 43°34' E 007°08'5 5.1
2014-Sep-05 10:33N 43°38' E 007°13'5 4.6
2014-Sep-05 09:31N 43°42' E 007°17'0 0.0
2014-Sep-05 08:25N 43°42' E 007°17'0 0.0
2014-Sep-05 07:25N 43°42' E 007°17'0 0.0
2014-Sep-05 06:25N 43°42' E 007°17'0 0.0
2014-Sep-05 05:25N 43°42' E 007°17'0 0.0
2014-Sep-05 04:31N 43°42' E 007°17'0 0.0
2014-Sep-05 03:31N 43°42' E 007°17'0 0.0
2014-Sep-05 02:31N 43°42' E 007°17'0 0.0
2014-Sep-05 01:25N 43°42' E 007°17'0 0.0
2014-Sep-05 00:31N 43°42' E 007°17'0 0.0
2014-Sep-04 23:31N 43°42' E 007°17'0 0.0
2014-Sep-04 22:31N 43°42' E 007°17'0 0.0
2014-Sep-04 21:31N 43°42' E 007°17'0 0.0
2014-Sep-04 20:31N 43°42' E 007°17'0 0.0
2014-Sep-04 19:31N 43°42' E 007°17'0 0.0
2014-Sep-04 18:25N 43°42' E 007°17'0 0.0
2014-Sep-04 17:31N 43°42' E 007°17'0 0.0
2014-Sep-04 16:25N 43°42' E 007°17'0 0.0
2014-Sep-04 15:31N 43°42' E 007°17'0 0.0
2014-Sep-04 14:31N 43°42' E 007°17'0 0.0
2014-Sep-04 13:31N 43°42' E 007°17'0 0.0
2014-Sep-04 08:31N 43°42' E 007°17'0 0.0
2014-Sep-04 07:25N 43°42' E 007°17'0 0.0
2014-Sep-04 06:31N 43°42' E 007°17'0 0.0
2014-Sep-04 05:31N 43°42' E 007°17'0 0.0
2014-Sep-04 04:31N 43°42' E 007°17'0 0.0
2014-Sep-04 03:31N 43°42' E 007°17'0 0.0
2014-Sep-04 02:31N 43°42' E 007°17'0 0.0
2014-Sep-04 01:31N 43°42' E 007°17'0 0.0
2014-Sep-04 00:31N 43°42' E 007°17'0 0.0
2014-Sep-03 23:31N 43°42' E 007°17'0 0.0
2014-Sep-03 22:31N 43°42' E 007°17'0 0.0
2014-Sep-03 21:31N 43°42' E 007°17'0 0.0
2014-Sep-03 20:31N 43°42' E 007°17'0 0.0
2014-Sep-03 19:31N 43°42' E 007°17'0 0.0
2014-Sep-03 18:31N 43°42' E 007°17'0 0.0
2014-Sep-03 17:25N 43°42' E 007°17'0 0.0
2014-Sep-03 16:31N 43°42' E 007°17'0 0.0
2014-Sep-03 15:31N 43°42' E 007°17'0 0.0
2014-Sep-03 14:13N 43°42' E 007°17'0 0.0
2014-Sep-03 13:31N 43°42' E 007°17'0 0.0
2014-Sep-03 12:19N 43°42' E 007°17'0 0.0
2014-Sep-03 11:31N 43°42' E 007°17'0 0.0
2014-Sep-03 10:31N 43°42' E 007°17'0 0.0
2014-Sep-03 09:31N 43°42' E 007°17'0 0.0
2014-Sep-03 08:31N 43°42' E 007°17'  
Track history (hours):
 
Tides and Currents Weather Stations Pressure Air Temp Water Temp Dewpoint Dewpoint Depression Visibility Wind Speed Wind Dir Waves Ship Positions

Space

Last reported at 2014-Sep-13 05:24 UTC. Time now 2014-Sep-16 17:32 UTC.
Position N 43°29' E 008°42'.

Length 45 m; draft 2.7 m.

Type: Pleasure craft. MMSI: 319917000.

Date/timePositionNaut miles runAvg speedWind from/ knotsBaromVisibWave heightAir tempDewpointWater temp
2014-Sep-13 05:24N 43°29' E 008°42'40210.6
2014-Sep-11 15:33N 37°07' E 011°20'1111.1
2014-Sep-11 14:32N 36°55' E 011°20'49 2.7
2014-Sep-10 20:21N 37°36' E 010°46'911.4
2014-Sep-10 19:33N 37°43' E 010°38'37611.1
2014-Sep-09 09:33N 43°27' E 007°18'1212.0
2014-Sep-09 08:33N 43°38' E 007°11'1 1.1
2014-Sep-09 07:30N 43°39' E 007°11'0 0.0
2014-Sep-09 06:30N 43°39' E 007°11'5 5.0
2014-Sep-09 05:33N 43°35' E 007°08'0 0.0
2014-Sep-09 04:33N 43°35' E 007°08'0 0.0
2014-Sep-09 03:33N 43°35' E 007°08'0 0.0
2014-Sep-09 02:33N 43°35' E 007°08'0 0.0
2014-Sep-09 01:33N 43°35' E 007°08'0 0.0
2014-Sep-09 00:33N 43°35' E 007°08'0 0.0
2014-Sep-08 23:33N 43°35' E 007°08'0 0.0
2014-Sep-08 22:33N 43°35' E 007°08'0 0.0
2014-Sep-08 21:33N 43°35' E 007°08'0 0.0
2014-Sep-08 20:33N 43°35' E 007°08'0 0.0
2014-Sep-08 19:27N 43°35' E 007°08'4 4.0
2014-Sep-08 18:33N 43°31' E 007°07'1212.4
2014-Sep-08 17:33N 43°24' E 006°53'1212.1
2014-Sep-08 16:33N 43°17' E 006°40'1 0.5
2014-Sep-08 15:32N 43°16' E 006°40'0 0.0
2014-Sep-08 14:32N 43°16' E 006°40'0 0.0
2014-Sep-08 13:29N 43°16' E 006°40'0 0.0
2014-Sep-08 12:32N 43°16' E 006°40'0 0.0
2014-Sep-08 10:29N 43°16' E 006°40'0 0.0
2014-Sep-08 09:32N 43°16' E 006°40'0 0.0
2014-Sep-08 08:32N 43°16' E 006°40'0 0.0
2014-Sep-08 07:32N 43°16' E 006°40'0 0.0
2014-Sep-08 06:29N 43°16' E 006°40'0 0.0
2014-Sep-08 05:32N 43°16' E 006°40'0 0.0
2014-Sep-08 04:32N 43°16' E 006°40'0 0.0
2014-Sep-08 03:32N 43°16' E 006°40'0 0.0
2014-Sep-08 01:20N 43°16' E 006°40'0 0.0
2014-Sep-08 00:32N 43°16' E 006°40'0 0.0
2014-Sep-07 23:29N 43°16' E 006°40'0 0.0
2014-Sep-07 22:23N 43°16' E 006°40'0 0.0
2014-Sep-07 20:29N 43°16' E 006°40'0 0.0
2014-Sep-07 19:29N 43°16' E 006°40'0 0.0
2014-Sep-07 18:32N 43°16' E 006°40'0 0.0
2014-Sep-07 17:32N 43°16' E 006°40'0 0.0
2014-Sep-07 16:26N 43°16' E 006°40'0 0.0
2014-Sep-07 15:32N 43°16' E 006°40'0 0.0
2014-Sep-07 14:32N 43°16' E 006°40'0 0.0
2014-Sep-07 13:32N 43°16' E 006°40'0 0.0
2014-Sep-07 12:14N 43°16' E 006°40'0 0.0
2014-Sep-07 11:23N 43°16' E 006°40'0 0.0
2014-Sep-07 10:26N 43°16' E 006°40'0 0.0
2014-Sep-07 09:32N 43°16' E 006°40'0 0.0
2014-Sep-07 08:32N 43°16' E 006°40'0 0.0
2014-Sep-07 07:32N 43°16' E 006°40'0 0.0
2014-Sep-07 06:32N 43°16' E 006°40'0 0.0
2014-Sep-07 05:32N 43°16' E 006°40'0 0.0
2014-Sep-07 04:29N 43°16' E 006°40'0 0.0
2014-Sep-07 03:32N 43°16' E 006°40'0 0.0
2014-Sep-07 02:29N 43°16' E 006°40'0 0.0
2014-Sep-07 01:32N 43°16' E 006°40'0 0.0
2014-Sep-07 00:32N 43°16' E 006°40'0 0.0
2014-Sep-06 23:32N 43°16' E 006°40'0 0.0
2014-Sep-06 22:32N 43°16' E 006°40'0 0.0
2014-Sep-06 21:32N 43°16' E 006°40'0 0.0
2014-Sep-06 20:32N 43°16' E 006°40'0 0.0
2014-Sep-06 19:32N 43°16' E 006°40'0 0.0
2014-Sep-06 18:32N 43°16' E 006°40'0 0.0
2014-Sep-06 17:32N 43°16' E 006°40'0 0.0
2014-Sep-06 16:32N 43°16' E 006°40'0 0.0
2014-Sep-06 15:32N 43°16' E 006°40'0 0.0
2014-Sep-06 14:29N 43°16' E 006°40'0 0.0
2014-Sep-06 13:32N 43°16' E 006°40'0 0.0
2014-Sep-06 12:20N 43°16' E 006°40'0 0.1
2014-Sep-06 11:32N 43°16' E 006°40'0 0.0
2014-Sep-06 10:23N 43°16' E 006°40'0 0.0
2014-Sep-06 09:32N 43°16' E 006°40'0 0.0
2014-Sep-06 08:32N 43°16' E 006°40'0 0.1
2014-Sep-06 07:32N 43°16' E 006°40'0 0.0
2014-Sep-06 06:32N 43°16' E 006°40'0 0.0
2014-Sep-06 05:29N 43°16' E 006°40'14 1.7
2014-Sep-05 21:05N 43°24' E 006°56'712.9
2014-Sep-05 20:33N 43°28' E 007°04'1111.1
2014-Sep-05 19:33N 43°38' E 007°10'1 0.9
2014-Sep-05 18:28N 43°39' E 007°11'3 3.7
2014-Sep-05 17:33N 43°36' E 007°09'2 1.8
2014-Sep-05 16:32N 43°34' E 007°08'0 0.0
2014-Sep-05 15:32N 43°34' E 007°08'0 0.0
2014-Sep-05 14:32N 43°34' E 007°08'0 0.0
2014-Sep-05 13:32N 43°34' E 007°08'0 0.0
2014-Sep-05 12:32N 43°34' E 007°08'0 0.0
2014-Sep-05 11:32N 43°34' E 007°08'5 5.1
2014-Sep-05 10:33N 43°38' E 007°13'5 4.6
2014-Sep-05 09:31N 43°42' E 007°17'0 0.0
2014-Sep-05 08:25N 43°42' E 007°17'0 0.0
2014-Sep-05 07:25N 43°42' E 007°17'0 0.0
2014-Sep-05 06:25N 43°42' E 007°17'0 0.0
2014-Sep-05 05:25N 43°42' E 007°17'0 0.0
2014-Sep-05 04:31N 43°42' E 007°17'0 0.0
2014-Sep-05 03:31N 43°42' E 007°17'0 0.0
2014-Sep-05 02:31N 43°42' E 007°17'0 0.0
2014-Sep-05 01:25N 43°42' E 007°17'0 0.0
2014-Sep-05 00:31N 43°42' E 007°17'0 0.0
2014-Sep-04 23:31N 43°42' E 007°17'0 0.0
2014-Sep-04 22:31N 43°42' E 007°17'0 0.0
2014-Sep-04 21:31N 43°42' E 007°17'0 0.0
2014-Sep-04 20:31N 43°42' E 007°17'0 0.0
2014-Sep-04 19:31N 43°42' E 007°17'0 0.0
2014-Sep-04 18:25N 43°42' E 007°17'0 0.0
2014-Sep-04 17:31N 43°42' E 007°17'0 0.0
2014-Sep-04 16:25N 43°42' E 007°17'0 0.0
2014-Sep-04 15:31N 43°42' E 007°17'0 0.0
2014-Sep-04 14:31N 43°42' E 007°17'0 0.0
2014-Sep-04 13:31N 43°42' E 007°17'0 0.0
2014-Sep-04 08:31N 43°42' E 007°17'0 0.0
2014-Sep-04 07:25N 43°42' E 007°17'0 0.0
2014-Sep-04 06:31N 43°42' E 007°17'0 0.0
2014-Sep-04 05:31N 43°42' E 007°17'0 0.0
2014-Sep-04 04:31N 43°42' E 007°17'0 0.0
2014-Sep-04 03:31N 43°42' E 007°17'0 0.0
2014-Sep-04 02:31N 43°42' E 007°17'0 0.0
2014-Sep-04 01:31N 43°42' E 007°17'0 0.0
2014-Sep-04 00:31N 43°42' E 007°17'0 0.0
2014-Sep-03 23:31N 43°42' E 007°17'0 0.0
2014-Sep-03 22:31N 43°42' E 007°17'0 0.0
2014-Sep-03 21:31N 43°42' E 007°17'0 0.0
2014-Sep-03 20:31N 43°42' E 007°17'0 0.0
2014-Sep-03 19:31N 43°42' E 007°17'0 0.0
2014-Sep-03 18:31N 43°42' E 007°17'0 0.0
2014-Sep-03 17:25N 43°42' E 007°17'0 0.0
2014-Sep-03 16:31N 43°42' E 007°17'0 0.0
2014-Sep-03 15:31N 43°42' E 007°17'0 0.0
2014-Sep-03 14:13N 43°42' E 007°17'0 0.0
2014-Sep-03 13:31N 43°42' E 007°17'0 0.0
2014-Sep-03 12:19N 43°42' E 007°17'0 0.0
2014-Sep-03 11:31N 43°42' E 007°17'0 0.0
2014-Sep-03 10:31N 43°42' E 007°17'0 0.0
2014-Sep-03 09:31N 43°42' E 007°17'0 0.0
2014-Sep-03 08:31N 43°42' E 007°17'  

Dump ship's entire track history